createdAt,value
2019-02-27T00:00:58.946Z,7.40
2019-02-27T00:03:29.194Z,6.40
2019-02-27T00:05:58.632Z,6.57
2019-02-27T00:08:27.644Z,6.20
2019-02-27T00:10:56.529Z,7.00
2019-02-27T00:13:25.522Z,6.60
2019-02-27T00:15:54.530Z,6.97
2019-02-27T00:18:23.957Z,5.60
2019-02-27T00:20:53.525Z,6.37
2019-02-27T00:23:24.065Z,6.17
2019-02-27T00:25:53.012Z,6.23
2019-02-27T00:28:23.319Z,5.80
2019-02-27T00:30:52.511Z,7.00
2019-02-27T00:33:25.037Z,7.07
2019-02-27T00:35:51.911Z,6.93
2019-02-27T00:38:22.750Z,6.90
2019-02-27T00:40:51.390Z,7.57
2019-02-27T00:43:20.280Z,6.80
2019-02-27T00:45:49.112Z,6.00
2019-02-27T00:48:18.235Z,5.80
2019-02-27T00:50:47.144Z,6.93
2019-02-27T00:53:15.957Z,8.60
2019-02-27T00:55:44.922Z,6.40
2019-02-27T00:58:13.768Z,7.17
2019-02-27T01:00:42.920Z,7.43
2019-02-27T01:03:11.868Z,7.03
2019-02-27T01:05:41.218Z,7.40
2019-02-27T01:08:10.622Z,7.63
2019-02-27T01:10:39.544Z,6.93
2019-02-27T01:13:08.505Z,7.20
2019-02-27T01:15:37.423Z,7.67
2019-02-27T01:18:06.391Z,7.20
2019-02-27T01:20:35.287Z,7.07
2019-02-27T01:23:04.198Z,7.03
2019-02-27T01:25:33.163Z,7.20
2019-02-27T01:28:01.999Z,7.10
2019-02-27T01:30:31.223Z,6.07
2019-02-27T01:33:03.967Z,7.67
2019-02-27T01:35:30.731Z,7.70
2019-02-27T01:37:59.715Z,6.30
2019-02-27T01:40:28.591Z,6.73
2019-02-27T01:42:57.400Z,7.20
2019-02-27T01:45:26.679Z,8.30
2019-02-27T01:47:55.563Z,7.30
2019-02-27T01:50:35.180Z,6.93
2019-02-27T01:53:07.070Z,7.83
2019-02-27T01:55:35.446Z,6.80
2019-02-27T01:58:04.427Z,6.97
2019-02-27T02:00:33.667Z,5.70
2019-02-27T02:03:02.552Z,7.73
2019-02-27T02:05:32.223Z,7.50
2019-02-27T02:08:01.263Z,7.53
2019-02-27T02:10:30.230Z,7.50
2019-02-27T02:13:15.175Z,7.50
2019-02-27T02:16:12.701Z,6.83
2019-02-27T02:19:21.436Z,6.80
2019-02-27T02:22:26.692Z,6.83
2019-02-27T02:25:37.936Z,7.10
2019-02-27T02:28:37.239Z,7.90
2019-02-27T02:31:42.619Z,5.93
2019-02-27T02:34:23.709Z,6.70
2019-02-27T02:37:25.595Z,6.37
2019-02-27T02:40:32.957Z,6.40
2019-02-27T02:43:41.468Z,6.07
2019-02-27T02:46:28.018Z,6.00
2019-02-27T02:49:29.449Z,6.43
2019-02-27T02:52:17.926Z,5.60
2019-02-27T02:55:19.485Z,7.07
2019-02-27T02:58:07.955Z,7.40
2019-02-27T03:01:15.214Z,7.23
2019-02-27T03:04:18.212Z,5.47
2019-02-27T03:07:19.320Z,5.90
2019-02-27T03:10:44.928Z,5.37
2019-02-27T03:13:41.946Z,5.20
2019-02-27T03:16:58.556Z,5.50
2019-02-27T03:19:54.419Z,5.63
2019-02-27T03:22:43.208Z,6.17
2019-02-27T03:25:58.900Z,5.60
2019-02-27T03:29:05.092Z,6.03
2019-02-27T03:31:57.742Z,5.33
2019-02-27T03:34:52.700Z,5.93
2019-02-27T03:37:48.364Z,5.73
2019-02-27T03:40:48.123Z,5.70
2019-02-27T03:43:53.088Z,6.17
2019-02-27T03:46:49.719Z,5.10
2019-02-27T03:50:14.875Z,5.93
2019-02-27T03:53:13.753Z,5.60
2019-02-27T03:56:09.772Z,5.10
2019-02-27T03:59:07.512Z,5.53
2019-02-27T04:02:24.342Z,6.17
2019-02-27T04:05:46.435Z,5.80
2019-02-27T04:08:44.797Z,6.57
2019-02-27T04:11:12.575Z,5.87
2019-02-27T04:13:41.382Z,5.83
2019-02-27T04:16:10.740Z,5.53
2019-02-27T04:18:38.244Z,5.33
2019-02-27T04:21:07.192Z,5.30
2019-02-27T04:23:36.034Z,5.97
2019-02-27T04:26:06.555Z,5.50
2019-02-27T04:28:35.484Z,6.03
2019-02-27T04:31:04.303Z,5.10
2019-02-27T04:33:33.271Z,4.87
2019-02-27T04:36:02.441Z,6.13
2019-02-27T04:38:31.290Z,5.80
2019-02-27T04:41:00.113Z,6.07
2019-02-27T04:43:31.989Z,5.33
2019-02-27T04:45:59.610Z,5.40
2019-02-27T04:48:30.055Z,4.87
2019-02-27T04:50:59.230Z,5.17
2019-02-27T04:53:31.574Z,7.13
2019-02-27T04:55:58.863Z,5.87
2019-02-27T04:58:27.878Z,7.93
2019-02-27T05:00:58.938Z,6.47
2019-02-27T05:03:28.519Z,5.17
2019-02-27T05:05:57.415Z,5.80
2019-02-27T05:08:27.248Z,5.30
2019-02-27T05:10:56.632Z,5.80
2019-02-27T05:13:25.444Z,5.77
2019-02-27T05:15:54.710Z,5.23
2019-02-27T05:18:23.717Z,5.67
2019-02-27T05:20:52.669Z,5.30
2019-02-27T05:23:21.509Z,5.43
2019-02-27T05:25:50.429Z,5.67
2019-02-27T05:28:19.344Z,4.60
2019-02-27T05:30:48.257Z,8.70
2019-02-27T05:33:17.155Z,9.63
2019-02-27T05:35:45.968Z,5.27
2019-02-27T05:38:15.098Z,4.77
2019-02-27T05:40:43.936Z,5.73
2019-02-27T05:43:13.892Z,5.70
2019-02-27T05:45:42.979Z,5.90
2019-02-27T05:48:12.098Z,5.30
2019-02-27T05:50:40.911Z,5.00
2019-02-27T05:53:10.598Z,6.47
2019-02-27T05:58:14.718Z,6.90
2019-02-27T06:00:44.051Z,6.10
2019-02-27T06:03:15.901Z,5.67
2019-02-27T06:05:49.519Z,5.13
2019-02-27T06:08:15.986Z,5.90
2019-02-27T06:10:45.264Z,5.67
2019-02-27T06:13:14.702Z,6.60
2019-02-27T06:18:22.472Z,4.70
2019-02-27T06:20:49.000Z,6.40
2019-02-27T06:23:18.984Z,7.23
2019-02-27T06:25:47.909Z,6.70
2019-02-27T06:28:18.696Z,6.60
2019-02-27T06:30:47.728Z,6.83
2019-02-27T06:33:16.639Z,5.67
2019-02-27T06:35:45.527Z,5.47
2019-02-27T06:38:14.471Z,5.40
2019-02-27T06:40:43.370Z,5.33
2019-02-27T06:43:12.303Z,5.50
2019-02-27T06:45:45.497Z,6.03
2019-02-27T06:48:12.113Z,5.90
2019-02-27T06:50:41.788Z,5.63
2019-02-27T06:53:15.523Z,6.27
2019-02-27T06:55:41.679Z,5.30
2019-02-27T06:58:14.609Z,6.77
2019-02-27T07:00:42.714Z,6.27
2019-02-27T07:03:18.293Z,6.63
2019-02-27T07:05:48.286Z,5.80
2019-02-27T07:08:17.865Z,6.87
2019-02-27T07:10:46.891Z,5.40
2019-02-27T07:13:15.961Z,5.40
2019-02-27T07:15:47.726Z,7.13
2019-02-27T07:18:15.546Z,7.40
2019-02-27T07:20:44.572Z,6.43
2019-02-27T07:23:13.548Z,6.63
2019-02-27T07:25:42.880Z,6.03
2019-02-27T07:28:11.848Z,7.20
2019-02-27T07:30:42.615Z,6.00
2019-02-27T07:33:12.101Z,8.60
2019-02-27T07:35:41.013Z,9.00
2019-02-27T07:38:09.858Z,6.30
2019-02-27T07:40:42.721Z,6.33
2019-02-27T07:43:09.255Z,6.97
2019-02-27T07:45:38.096Z,8.30
2019-02-27T07:48:07.180Z,8.07
2019-02-27T07:50:36.937Z,7.60
2019-02-27T07:53:06.273Z,7.80
2019-02-27T07:55:35.115Z,7.73
2019-02-27T07:58:04.019Z,6.73
2019-02-27T08:00:33.036Z,8.20
2019-02-27T08:03:01.927Z,6.63
2019-02-27T08:05:30.820Z,7.20
2019-02-27T08:08:02.084Z,7.33
2019-02-27T08:10:30.983Z,7.80
2019-02-27T08:12:59.783Z,6.23
2019-02-27T08:15:28.932Z,7.40
2019-02-27T08:17:58.770Z,6.80
2019-02-27T08:20:27.696Z,7.57
2019-02-27T08:22:56.795Z,7.40
2019-02-27T08:25:26.779Z,6.70
2019-02-27T08:27:55.700Z,8.13
2019-02-27T08:30:26.400Z,5.97
2019-02-27T08:32:55.369Z,6.50
2019-02-27T08:35:24.383Z,6.90
2019-02-27T08:38:02.158Z,7.37
2019-02-27T08:40:25.253Z,7.00
2019-02-27T08:42:54.343Z,6.57
2019-02-27T08:45:26.658Z,7.70
2019-02-27T08:47:55.674Z,7.57
2019-02-27T08:50:31.666Z,7.60
2019-02-27T08:53:00.625Z,7.80
2019-02-27T08:55:29.572Z,8.07
2019-02-27T08:57:59.151Z,7.97
2019-02-27T09:00:29.919Z,6.60
2019-02-27T09:03:02.496Z,7.90
2019-02-27T09:05:30.323Z,6.50
2019-02-27T09:07:59.131Z,7.80
2019-02-27T09:10:30.912Z,7.27
2019-02-27T09:13:05.283Z,7.17
2019-02-27T09:15:31.122Z,6.70
2019-02-27T09:18:01.922Z,6.13
2019-02-27T09:20:30.735Z,7.40
2019-02-27T09:22:59.544Z,6.70
2019-02-27T09:25:28.477Z,7.30
2019-02-27T09:27:57.567Z,7.87
2019-02-27T09:30:29.302Z,6.93
2019-02-27T09:32:57.280Z,7.97
2019-02-27T09:35:26.247Z,8.67
2019-02-27T09:37:55.136Z,8.87
2019-02-27T09:40:24.182Z,6.20
2019-02-27T09:42:53.974Z,6.90
2019-02-27T09:45:27.990Z,6.50
2019-02-27T09:47:59.554Z,8.13
2019-02-27T09:50:33.191Z,8.17
2019-02-27T09:53:03.620Z,7.53
2019-02-27T09:55:32.996Z,8.47
2019-02-27T09:58:02.317Z,7.90
2019-02-27T10:00:33.676Z,8.87
2019-02-27T10:03:02.701Z,9.17
2019-02-27T10:05:36.292Z,7.93
2019-02-27T10:08:02.432Z,7.73
2019-02-27T10:10:31.316Z,9.43
2019-02-27T10:13:03.242Z,11.53
2019-02-27T10:15:31.003Z,15.37
2019-02-27T10:17:59.978Z,10.70
2019-02-27T10:20:28.991Z,8.00
2019-02-27T10:22:58.001Z,7.87
2019-02-27T10:25:27.031Z,9.10
2019-02-27T10:27:55.861Z,7.63
2019-02-27T10:30:28.344Z,7.90
2019-02-27T10:32:57.247Z,7.60
2019-02-27T10:35:26.789Z,9.30
2019-02-27T10:37:58.315Z,8.50
2019-02-27T10:40:27.607Z,7.23
2019-02-27T10:42:56.500Z,9.50
2019-02-27T10:45:25.555Z,8.03
2019-02-27T10:47:54.524Z,9.13
2019-02-27T10:50:25.891Z,8.00
2019-02-27T10:52:54.740Z,8.23
2019-02-27T10:55:23.760Z,8.50
2019-02-27T10:57:53.020Z,7.47
2019-02-27T11:00:25.224Z,8.43
2019-02-27T11:02:56.303Z,7.23
2019-02-27T11:05:26.496Z,8.60
2019-02-27T11:07:55.648Z,7.20
2019-02-27T11:10:25.632Z,7.57
2019-02-27T11:12:54.723Z,7.37
2019-02-27T11:15:25.295Z,7.40
2019-02-27T11:17:54.494Z,6.60
2019-02-27T11:20:24.716Z,7.73
2019-02-27T11:22:53.862Z,11.20
2019-02-27T11:25:23.253Z,9.07
2019-02-27T11:27:56.887Z,7.93
2019-02-27T11:30:35.673Z,9.43
2019-02-27T11:33:02.237Z,7.83
2019-02-27T11:35:31.395Z,8.07
2019-02-27T11:38:02.773Z,7.60
2019-02-27T11:40:32.323Z,7.30
2019-02-27T11:43:06.409Z,7.57
2019-02-27T11:45:32.131Z,7.17
2019-02-27T11:48:01.046Z,8.47
2019-02-27T11:50:31.136Z,8.13
2019-02-27T11:53:02.750Z,7.33
2019-02-27T11:55:30.776Z,8.60
2019-02-27T11:58:04.583Z,8.23
2019-02-27T12:00:30.550Z,8.57
2019-02-27T12:02:59.876Z,7.90
2019-02-27T12:05:33.827Z,9.20
2019-02-27T12:07:59.669Z,7.77
2019-02-27T12:10:29.219Z,7.70
2019-02-27T12:13:00.747Z,8.75
2019-02-27T12:15:29.014Z,8.00
2019-02-27T12:18:01.658Z,9.60
2019-02-27T12:20:30.963Z,9.33
2019-02-27T12:23:00.248Z,7.20
2019-02-27T12:25:32.319Z,8.03
2019-02-27T12:28:01.950Z,8.00
2019-02-27T12:30:31.182Z,8.57
2019-02-27T12:33:00.057Z,8.30
2019-02-27T12:35:29.851Z,8.83
2019-02-27T12:37:59.462Z,8.07
2019-02-27T12:40:28.411Z,7.57
2019-02-27T12:43:01.713Z,7.53
2019-02-27T12:45:30.877Z,8.73
2019-02-27T12:47:59.937Z,8.77
2019-02-27T12:50:31.092Z,10.57
2019-02-27T12:52:59.895Z,9.80
2019-02-27T12:55:29.015Z,9.97
2019-02-27T12:57:58.318Z,8.10
2019-02-27T13:00:28.474Z,6.77
2019-02-27T13:02:58.969Z,6.70
2019-02-27T13:05:28.375Z,9.00
2019-02-27T13:07:57.631Z,7.13
2019-02-27T13:10:26.591Z,8.57
2019-02-27T13:12:57.825Z,7.47
2019-02-27T13:15:26.809Z,7.37
2019-02-27T13:17:57.604Z,8.30
2019-02-27T13:20:27.320Z,7.60
2019-02-27T13:22:56.221Z,8.50
2019-02-27T13:25:25.862Z,8.97
2019-02-27T13:27:54.840Z,8.40
2019-02-27T13:30:23.766Z,8.10
2019-02-27T13:32:53.139Z,12.60
2019-02-27T13:35:23.113Z,9.00
2019-02-27T13:37:53.347Z,8.07
2019-02-27T13:40:23.305Z,8.70
2019-02-27T13:42:53.402Z,8.20
2019-02-27T13:45:24.261Z,7.30
2019-02-27T13:47:55.225Z,5.63
2019-02-27T13:50:26.684Z,7.50
2019-02-27T13:52:54.941Z,7.40
2019-02-27T13:55:24.217Z,8.03
2019-02-27T13:57:53.113Z,8.27
2019-02-27T14:00:25.942Z,7.00
2019-02-27T14:02:55.147Z,5.40
2019-02-27T14:05:24.487Z,6.10
2019-02-27T14:07:57.085Z,4.20
2019-02-27T14:10:25.029Z,6.30
2019-02-27T14:12:53.965Z,7.67
2019-02-27T14:15:26.897Z,5.87
2019-02-27T14:17:54.145Z,4.83
2019-02-27T14:20:23.343Z,5.33
2019-02-27T14:22:52.307Z,4.30
2019-02-27T14:25:22.943Z,4.00
2019-02-27T14:27:52.203Z,4.50
2019-02-27T14:30:23.239Z,2.53
2019-02-27T14:32:52.298Z,3.50
2019-02-27T14:35:21.291Z,3.43
2019-02-27T14:37:51.131Z,3.30
2019-02-27T14:40:21.084Z,3.67
2019-02-27T14:42:53.826Z,3.10
2019-02-27T14:45:21.680Z,2.80
2019-02-27T14:47:50.715Z,3.47
2019-02-27T14:50:20.932Z,3.47
2019-02-27T14:52:52.231Z,2.80
2019-02-27T14:55:21.175Z,3.20
2019-02-27T14:57:51.085Z,3.07
2019-02-27T15:00:24.408Z,3.80
2019-02-27T15:02:55.580Z,3.33
2019-02-27T15:05:23.966Z,4.00
2019-02-27T15:07:54.651Z,3.47
2019-02-27T15:10:25.139Z,4.00
2019-02-27T15:12:55.521Z,3.27
2019-02-27T15:15:26.539Z,3.83
2019-02-27T15:18:01.399Z,4.37
2019-02-27T15:20:30.658Z,4.10
2019-02-27T15:22:59.659Z,5.03
2019-02-27T15:25:28.948Z,4.57
2019-02-27T15:27:59.956Z,4.20
2019-02-27T15:30:28.960Z,4.37
2019-02-27T15:33:01.113Z,3.70
2019-02-27T15:35:28.918Z,3.43
2019-02-27T15:37:58.158Z,3.47
2019-02-27T15:40:29.668Z,3.30
2019-02-27T15:42:57.966Z,4.20
2019-02-27T15:45:27.334Z,5.73
2019-02-27T15:47:56.295Z,4.80
2019-02-27T15:50:25.407Z,3.77
2019-02-27T15:52:54.525Z,4.20
2019-02-27T15:55:23.527Z,5.17
2019-02-27T15:57:53.526Z,4.30
2019-02-27T16:00:23.868Z,2.80
2019-02-27T16:02:53.421Z,3.10
2019-02-27T16:05:22.765Z,3.83
2019-02-27T16:07:52.166Z,4.00
2019-02-27T16:10:22.096Z,2.60
2019-02-27T16:12:51.915Z,2.90
2019-02-27T16:15:21.865Z,3.47
2019-02-27T16:17:50.842Z,2.10
2019-02-27T16:20:20.179Z,2.63
2019-02-27T16:22:49.219Z,3.20
2019-02-27T16:25:20.242Z,4.50
2019-02-27T16:27:49.328Z,4.93
2019-02-27T16:30:24.172Z,2.87
2019-02-27T16:32:53.573Z,3.37
2019-02-27T16:35:22.827Z,3.50
2019-02-27T16:37:56.269Z,6.40
2019-02-27T16:40:22.777Z,3.70
2019-02-27T16:42:52.350Z,4.25
2019-02-27T16:45:32.459Z,3.87
2019-02-27T16:47:58.443Z,5.70
2019-02-27T16:50:28.226Z,5.07
2019-02-27T16:52:57.403Z,4.37
2019-02-27T16:55:26.312Z,7.40
2019-02-27T16:57:57.403Z,2.40
2019-02-27T17:00:27.929Z,2.53
2019-02-27T17:02:57.255Z,2.67
2019-02-27T17:05:26.304Z,5.27
2019-02-27T17:08:00.663Z,4.00
2019-02-27T17:10:29.341Z,3.60
2019-02-27T17:12:58.988Z,3.80
2019-02-27T17:15:28.254Z,7.77
2019-02-27T17:17:57.165Z,6.07
2019-02-27T17:20:26.118Z,5.00
2019-02-27T17:22:55.319Z,5.20
2019-02-27T17:25:29.010Z,5.50
2019-02-27T17:27:55.597Z,5.23
2019-02-27T17:30:26.664Z,5.30
2019-02-27T17:32:55.610Z,4.50
2019-02-27T17:35:24.696Z,5.90
2019-02-27T17:37:53.574Z,6.20
2019-02-27T17:40:22.810Z,5.90
2019-02-27T17:42:53.594Z,7.10
2019-02-27T17:45:23.547Z,9.70
2019-02-27T17:47:52.729Z,9.03
2019-02-27T17:50:22.619Z,7.73
2019-02-27T17:52:52.855Z,8.70
2019-02-27T17:55:21.872Z,11.50
2019-02-27T17:57:51.384Z,10.03
2019-02-27T18:00:42.362Z,8.00
2019-02-27T18:03:11.489Z,11.40
2019-02-27T18:05:40.655Z,9.47
2019-02-27T18:08:09.624Z,10.20
2019-02-27T18:10:38.638Z,8.53
2019-02-27T18:13:07.621Z,7.77
2019-02-27T18:15:36.835Z,8.77
2019-02-27T18:18:07.538Z,8.03
2019-02-27T18:20:36.655Z,10.00
2019-02-27T18:23:05.767Z,8.67
2019-02-27T18:25:35.261Z,9.07
2019-02-27T18:28:04.271Z,11.67
2019-02-27T18:30:33.179Z,9.90
2019-02-27T18:33:02.156Z,9.60
2019-02-27T18:35:31.068Z,8.70
2019-02-27T18:37:59.935Z,9.53
2019-02-27T18:40:29.062Z,7.80
2019-02-27T18:42:58.011Z,11.97
2019-02-27T18:45:27.047Z,8.33
2019-02-27T18:47:58.412Z,9.50
2019-02-27T18:50:27.258Z,8.70
2019-02-27T18:52:56.250Z,7.30
2019-02-27T18:55:29.385Z,8.50
2019-02-27T18:57:56.283Z,8.70
2019-02-27T19:00:25.591Z,10.43
2019-02-27T19:02:55.149Z,8.40
2019-02-27T19:05:24.391Z,9.27
2019-02-27T19:07:54.821Z,8.23
2019-02-27T19:10:24.610Z,9.40
2019-02-27T19:12:53.826Z,10.33
2019-02-27T19:15:22.931Z,10.67
2019-02-27T19:17:51.992Z,9.40
2019-02-27T19:20:24.856Z,11.50
2019-02-27T19:22:54.126Z,11.27
2019-02-27T19:25:23.144Z,10.27
2019-02-27T19:27:52.188Z,10.17
2019-02-27T19:30:21.310Z,10.07
2019-02-27T19:32:50.387Z,8.93
2019-02-27T19:35:21.747Z,10.30
2019-02-27T19:37:50.455Z,9.33
2019-02-27T19:40:20.003Z,12.20
2019-02-27T19:42:57.168Z,9.73
2019-02-27T19:45:26.251Z,10.67
2019-02-27T19:47:55.918Z,10.20
2019-02-27T19:50:25.591Z,10.30
2019-02-27T19:52:54.842Z,7.03
2019-02-27T19:55:27.279Z,7.83
2019-02-27T19:57:54.806Z,8.63
2019-02-27T20:00:25.728Z,9.43
2019-02-27T20:02:57.483Z,10.17
2019-02-27T20:05:25.500Z,9.67
2019-02-27T20:07:54.931Z,8.70
2019-02-27T20:10:28.910Z,11.30
2019-02-27T20:12:54.714Z,9.17
2019-02-27T20:15:24.313Z,9.50
2019-02-27T20:17:53.457Z,9.40
2019-02-27T20:20:23.037Z,10.97
2019-02-27T20:22:54.601Z,12.00
2019-02-27T20:25:24.059Z,10.37
2019-02-27T20:27:53.393Z,12.23
2019-02-27T20:30:22.745Z,11.80
2019-02-27T20:32:52.728Z,12.65
2019-02-27T20:35:21.952Z,10.50
2019-02-27T20:37:51.445Z,10.80
2019-02-27T20:40:20.652Z,9.00
2019-02-27T20:42:52.097Z,9.83
2019-02-27T20:45:20.469Z,10.10
2019-02-27T20:47:49.323Z,10.33
2019-02-27T20:50:31.804Z,9.37
2019-02-27T20:52:52.680Z,9.60
2019-02-27T20:55:21.567Z,7.70
2019-02-27T20:57:50.550Z,9.50
2019-02-27T21:00:20.524Z,10.50
2019-02-27T21:02:50.435Z,11.97
2019-02-27T21:05:21.104Z,9.23
2019-02-27T21:07:49.935Z,8.73
2019-02-27T21:10:21.145Z,11.07
2019-02-27T21:12:54.063Z,11.33
2019-02-27T21:15:20.934Z,11.10
2019-02-27T21:17:50.081Z,10.63
2019-02-27T21:20:19.176Z,10.73
2019-02-27T21:22:48.271Z,11.57
2019-02-27T21:25:17.235Z,10.13
2019-02-27T21:27:46.151Z,10.90
2019-02-27T21:30:18.773Z,12.47
2019-02-27T21:32:47.464Z,11.23
2019-02-27T21:35:16.811Z,9.10
2019-02-27T21:37:46.230Z,9.40
2019-02-27T21:40:15.668Z,9.93
2019-02-27T21:42:44.614Z,10.37
2019-02-27T21:45:15.357Z,14.47
2019-02-27T21:47:44.555Z,10.10
2019-02-27T21:50:15.719Z,14.00
2019-02-27T21:52:44.733Z,12.47
2019-02-27T21:55:13.868Z,10.80
2019-02-27T21:57:42.906Z,9.10
2019-02-27T22:00:15.100Z,9.20
2019-02-27T22:02:44.368Z,11.00
2019-02-27T22:05:18.471Z,10.30
2019-02-27T22:07:43.938Z,10.20
2019-02-27T22:10:19.175Z,9.90
2019-02-27T22:12:44.661Z,9.90
2019-02-27T22:15:21.915Z,10.80
2019-02-27T22:17:47.620Z,9.90
2019-02-27T22:20:16.888Z,11.13
2019-02-27T22:22:45.713Z,10.20
2019-02-27T22:25:14.778Z,11.40
2019-02-27T22:27:45.965Z,11.40
2019-02-27T22:30:15.607Z,12.90
2019-02-27T22:32:47.464Z,11.10
2019-02-27T22:35:15.496Z,10.73
2019-02-27T22:37:44.952Z,10.60
2019-02-27T22:40:15.752Z,11.97
2019-02-27T22:42:45.463Z,10.60
2019-02-27T22:45:17.048Z,11.00
2019-02-27T22:47:46.013Z,12.80
2019-02-27T22:50:15.645Z,15.73
2019-02-27T22:52:44.530Z,11.37
2019-02-27T22:55:14.226Z,15.10
2019-02-27T22:57:43.071Z,10.53
2019-02-27T23:00:25.359Z,12.60
2019-02-27T23:02:54.726Z,10.63
2019-02-27T23:05:24.235Z,11.73
2019-02-27T23:07:53.457Z,12.50
2019-02-27T23:10:22.523Z,11.90
2019-02-27T23:12:51.336Z,11.20
2019-02-27T23:15:20.415Z,12.87
2019-02-27T23:17:49.298Z,11.47
2019-02-27T23:20:21.014Z,11.90
2019-02-27T23:22:48.850Z,10.50
2019-02-27T23:25:17.810Z,11.93
2019-02-27T23:27:46.678Z,11.13
2019-02-27T23:30:16.149Z,12.00
2019-02-27T23:32:44.947Z,11.83
2019-02-27T23:35:16.752Z,11.20
2019-02-27T23:37:44.788Z,11.90
2019-02-27T23:40:16.926Z,11.03
2019-02-27T23:42:44.352Z,10.90
2019-02-27T23:45:13.411Z,11.33
2019-02-27T23:47:42.319Z,12.77
2019-02-27T23:50:12.079Z,11.43
2019-02-27T23:52:40.937Z,12.57
2019-02-27T23:55:10.762Z,11.80
2019-02-27T23:57:39.834Z,11.10
